Time;durP1;ratioP1;P1;durP2;ratioP2;P2;SDS_P1;SDS_P2;PMS_P1;PMS_P2;Temp;Humidity;BMP_temperature;BMP_pressure;BME280_temperature;BME280_humidity;BME280_pressure;Samples;Min_cycle;Max_cycle;Signal;HPM_P1;HPM_P2
2023/03/29 00:00:00;;;;;;;4.82;2.70;;;;;;;;;;10449157;28;20045;-49
2023/03/29 00:05:03;;;;;;;4.60;2.38;;;;;;;;;;10450738;28;20170;-50
2023/03/29 00:10:04;;;;;;;3.90;1.92;;;;;;;;;;10459535;28;20025;-50
2023/03/29 00:15:07;;;;;;;4.30;2.40;;;;;;;;;;10437288;28;20059;-53
2023/03/29 00:20:09;;;;;;;4.95;2.30;;;;;;;;;;10438862;28;20024;-51
2023/03/29 00:25:10;;;;;;;5.20;2.13;;;;;;;;;;10436320;28;20090;-50
2023/03/29 00:30:12;;;;;;;5.53;2.30;;;;;;;;;;10457956;28;20033;-49
2023/03/29 00:35:13;;;;;;;2.78;2.33;;;;;;;;;;10445621;28;20480;-51
2023/03/29 00:40:14;;;;;;;3.70;2.50;;;;;;;;;;10431187;28;20040;-51
2023/03/29 00:45:29;;;;;;;3.55;2.42;;;;;;;;;;10437868;28;20026;-53
2023/03/29 00:50:40;;;;;;;5.05;2.78;;;;;;;;;;10440260;28;20036;-51
2023/03/29 00:56:06;;;;;;;3.03;2.30;;;;;;;;;;10448021;28;20285;-50
2023/03/29 01:01:14;;;;;;;5.85;2.72;;;;;;;;;;10443121;28;20113;-50
2023/03/29 01:06:17;;;;;;;2.67;2.00;;;;;;;;;;10442860;28;20029;-47
2023/03/29 01:11:42;;;;;;;3.10;2.00;;;;;;;;;;10439244;28;20122;-49
2023/03/29 01:16:44;;;;;;;2.25;2.05;;;;;;;;;;10453659;28;20037;-47
2023/03/29 01:21:52;;;;;;;4.38;2.63;;;;;;;;;;10445035;28;20051;-50
2023/03/29 01:27:11;;;;;;;3.72;2.17;;;;;;;;;;10442695;28;20037;-50
2023/03/29 01:32:29;;;;;;;3.03;1.85;;;;;;;;;;10412615;28;20045;-49
2023/03/29 01:37:57;;;;;;;3.95;1.95;;;;;;;;;;10429223;28;20030;-48
2023/03/29 01:43:30;;;;;;;3.50;2.20;;;;;;;;;;10423990;28;20095;-49
2023/03/29 01:48:46;;;;;;;4.40;1.90;;;;;;;;;;10423129;28;20376;-49
2023/03/29 01:54:01;;;;;;;2.88;1.95;;;;;;;;;;10434921;28;20151;-50
2023/03/29 01:59:07;;;;;;;4.63;2.10;;;;;;;;;;10444518;28;20061;-49
2023/03/29 02:04:12;;;;;;;2.00;1.90;;;;;;;;;;10412080;28;20513;-49
2023/03/29 02:09:13;;;;;;;1.90;1.80;;;;;;;;;;10432399;28;20056;-49
2023/03/29 02:14:14;;;;;;;2.88;2.10;;;;;;;;;;10433137;28;20048;-55
2023/03/29 02:19:16;;;;;;;4.35;2.03;;;;;;;;;;10440457;28;20036;-49
2023/03/29 02:24:19;;;;;;;2.30;1.80;;;;;;;;;;10437341;28;20133;-50
2023/03/29 02:29:20;;;;;;;3.22;1.90;;;;;;;;;;10436249;28;20380;-54
2023/03/29 02:34:29;;;;;;;1.80;1.70;;;;;;;;;;10440288;28;20032;-53
2023/03/29 02:39:33;;;;;;;3.75;2.13;;;;;;;;;;10413681;28;20098;-54
2023/03/29 02:44:39;;;;;;;1.80;1.50;;;;;;;;;;10435368;28;20040;-50
2023/03/29 02:49:40;;;;;;;2.08;1.70;;;;;;;;;;10439186;28;20035;-52
2023/03/29 02:54:44;;;;;;;2.25;1.83;;;;;;;;;;10426036;28;20384;-52
2023/03/29 02:59:44;;;;;;;2.20;1.80;;;;;;;;;;10425108;28;20395;-51
2023/03/29 03:04:45;;;;;;;2.45;1.58;;;;;;;;;;10426992;28;20022;-48
2023/03/29 03:09:46;;;;;;;3.00;1.80;;;;;;;;;;10424081;28;20028;-49
2023/03/29 03:14:47;;;;;;;2.17;1.70;;;;;;;;;;10437406;28;20040;-48
2023/03/29 03:19:48;;;;;;;3.28;1.70;;;;;;;;;;10438661;28;20026;-50
2023/03/29 03:24:48;;;;;;;2.10;1.90;;;;;;;;;;10451691;28;20107;-49
2023/03/29 03:29:49;;;;;;;2.60;1.63;;;;;;;;;;10432064;28;20026;-50
2023/03/29 03:34:50;;;;;;;3.28;1.63;;;;;;;;;;10431886;28;20024;-51
2023/03/29 03:39:51;;;;;;;1.65;1.55;;;;;;;;;;10437994;28;20044;-49
2023/03/29 03:44:51;;;;;;;1.60;1.50;;;;;;;;;;10438581;28;20040;-48
2023/03/29 03:49:52;;;;;;;2.28;1.63;;;;;;;;;;10437902;28;20032;-49
2023/03/29 03:54:52;;;;;;;2.20;1.77;;;;;;;;;;10448322;28;20048;-50
2023/03/29 03:59:53;;;;;;;2.42;1.67;;;;;;;;;;10439224;28;20036;-48
2023/03/29 04:04:53;;;;;;;1.77;1.40;;;;;;;;;;10449541;28;20025;-48
2023/03/29 04:09:54;;;;;;;3.47;1.80;;;;;;;;;;10437005;28;20017;-48
2023/03/29 04:14:54;;;;;;;2.38;1.70;;;;;;;;;;10436634;28;20029;-48
2023/03/29 04:19:56;;;;;;;2.15;1.70;;;;;;;;;;10436862;28;20129;-48
2023/03/29 04:24:56;;;;;;;2.88;1.55;;;;;;;;;;10452602;28;20495;-48
2023/03/29 04:29:57;;;;;;;2.38;1.65;;;;;;;;;;10448420;28;20032;-48
2023/03/29 04:34:58;;;;;;;2.90;1.80;;;;;;;;;;10449811;28;20028;-48
2023/03/29 04:40:03;;;;;;;2.22;1.60;;;;;;;;;;10436427;28;20120;-48
2023/03/29 04:45:05;;;;;;;1.50;1.40;;;;;;;;;;10436877;28;20029;-50
2023/03/29 04:50:07;;;;;;;1.50;1.40;;;;;;;;;;10447783;28;20078;-48
2023/03/29 04:55:09;;;;;;;1.58;1.48;;;;;;;;;;10435182;28;20176;-49
2023/03/29 05:00:14;;;;;;;1.88;1.35;;;;;;;;;;10438925;28;20547;-50
2023/03/29 05:05:14;;;;;;;1.77;1.48;;;;;;;;;;10447030;28;20021;-49
2023/03/29 05:10:16;;;;;;;1.73;1.52;;;;;;;;;;10447062;28;20025;-48
2023/03/29 05:15:17;;;;;;;1.40;1.30;;;;;;;;;;10453377;28;20078;-48
2023/03/29 05:20:18;;;;;;;2.60;1.42;;;;;;;;;;10454433;28;20025;-49
2023/03/29 05:25:19;;;;;;;2.85;1.70;;;;;;;;;;10457905;28;20037;-51
2023/03/29 05:30:19;;;;;;;10.70;1.48;;;;;;;;;;10454372;28;20108;-49
2023/03/29 05:35:20;;;;;;;2.10;1.60;;;;;;;;;;10454246;28;20028;-54
2023/03/29 05:40:21;;;;;;;2.03;1.73;;;;;;;;;;10451219;28;20029;-51
2023/03/29 05:45:21;;;;;;;1.95;1.52;;;;;;;;;;10446809;28;20124;-50
2023/03/29 05:50:22;;;;;;;3.33;1.77;;;;;;;;;;10437790;28;20449;-57
2023/03/29 05:55:23;;;;;;;11.65;1.77;;;;;;;;;;10457107;28;20069;-48
2023/03/29 06:00:24;;;;;;;7.60;1.85;;;;;;;;;;10451905;28;20041;-55
2023/03/29 06:05:25;;;;;;;3.13;1.85;;;;;;;;;;10433739;28;20028;-54
2023/03/29 06:10:26;;;;;;;14.55;2.50;;;;;;;;;;10450961;28;20500;-56
2023/03/29 06:15:26;;;;;;;13.05;2.15;;;;;;;;;;10450179;28;20041;-57
2023/03/29 06:20:27;;;;;;;10.85;2.30;;;;;;;;;;10443724;28;20041;-58
2023/03/29 06:25:28;;;;;;;9.27;2.47;;;;;;;;;;10440938;28;20042;-53
2023/03/29 06:30:29;;;;;;;14.85;2.25;;;;;;;;;;10426945;28;20029;-54
2023/03/29 06:35:29;;;;;;;9.15;2.08;;;;;;;;;;10428614;28;20021;-65
2023/03/29 06:40:32;;;;;;;12.60;3.22;;;;;;;;;;10451331;28;20021;-55
2023/03/29 06:45:37;;;;;;;9.10;2.25;;;;;;;;;;10452570;28;20258;-55
2023/03/29 06:50:38;;;;;;;8.43;2.05;;;;;;;;;;10422613;28;20048;-58
2023/03/29 06:55:38;;;;;;;20.67;2.50;;;;;;;;;;10432705;28;20525;-53
2023/03/29 07:00:39;;;;;;;9.43;2.15;;;;;;;;;;10447763;28;20032;-62
2023/03/29 07:05:40;;;;;;;4.82;2.13;;;;;;;;;;10429372;28;20032;-56
2023/03/29 07:10:46;;;;;;;9.90;2.17;;;;;;;;;;10433232;28;20025;-55
2023/03/29 07:15:46;;;;;;;5.22;2.00;;;;;;;;;;10438930;28;20017;-54
2023/03/29 07:20:47;;;;;;;3.97;2.08;;;;;;;;;;10453894;28;20479;-54
2023/03/29 07:25:48;;;;;;;6.50;2.00;;;;;;;;;;10456907;28;20028;-55
2023/03/29 07:30:48;;;;;;;5.78;2.15;;;;;;;;;;10429659;28;20060;-54
2023/03/29 07:35:49;;;;;;;9.60;2.17;;;;;;;;;;10448346;28;20041;-55
2023/03/29 07:40:50;;;;;;;2.78;1.80;;;;;;;;;;10440658;28;20029;-58
2023/03/29 07:45:51;;;;;;;3.20;1.92;;;;;;;;;;10436876;28;20140;-57
2023/03/29 07:50:52;;;;;;;6.10;1.92;;;;;;;;;;10437390;28;20087;-62
2023/03/29 07:55:53;;;;;;;4.60;1.98;;;;;;;;;;10437427;28;20025;-55
2023/03/29 08:00:54;;;;;;;6.10;1.90;;;;;;;;;;10423620;28;20435;-57
2023/03/29 08:05:54;;;;;;;3.00;1.85;;;;;;;;;;10451108;28;20021;-55
2023/03/29 08:10:55;;;;;;;5.40;2.13;;;;;;;;;;10436449;28;20021;-59
2023/03/29 08:15:56;;;;;;;3.95;1.70;;;;;;;;;;10415157;28;20026;-51
2023/03/29 08:20:57;;;;;;;8.48;2.33;;;;;;;;;;10444940;28;20225;-58
2023/03/29 08:25:57;;;;;;;3.30;1.67;;;;;;;;;;10451783;28;20031;-53
2023/03/29 08:30:58;;;;;;;2.85;1.77;;;;;;;;;;10426584;28;20028;-54
2023/03/29 08:35:59;;;;;;;5.13;2.10;;;;;;;;;;10437167;28;20109;-55
2023/03/29 08:40:59;;;;;;;6.85;2.10;;;;;;;;;;10430387;28;20488;-55
2023/03/29 08:46:37;;;;;;;3.58;1.60;;;;;;;;;;10435959;28;20040;-54
2023/03/29 08:51:56;;;;;;;6.65;2.10;;;;;;;;;;10432466;28;20116;-53
2023/03/29 08:57:06;;;;;;;5.80;1.75;;;;;;;;;;10430570;28;20040;-51
2023/03/29 09:02:16;;;;;;;4.88;1.80;;;;;;;;;;10414366;28;20500;-51
2023/03/29 09:07:17;;;;;;;5.90;1.80;;;;;;;;;;10432869;28;20030;-57
2023/03/29 09:12:39;;;;;;;3.47;1.73;;;;;;;;;;10438211;28;20029;-58
2023/03/29 09:18:10;;;;;;;2.30;1.73;;;;;;;;;;10435492;28;20155;-55
2023/03/29 09:23:27;;;;;;;5.60;1.65;;;;;;;;;;10414769;28;20032;-53
2023/03/29 09:29:03;;;;;;;4.93;1.77;;;;;;;;;;10443211;28;20053;-57
2023/03/29 09:34:13;;;;;;;3.00;1.80;;;;;;;;;;10387286;28;20037;-55
2023/03/29 09:39:15;;;;;;;2.90;1.95;;;;;;;;;;10442642;28;20066;-51
2023/03/29 09:44:28;;;;;;;3.47;1.50;;;;;;;;;;10429192;28;20057;-57
2023/03/29 09:49:36;;;;;;;2.15;1.70;;;;;;;;;;10438783;28;20407;-55
2023/03/29 09:54:37;;;;;;;3.47;2.00;;;;;;;;;;10437977;28;20511;-60
2023/03/29 09:59:39;;;;;;;3.40;1.58;;;;;;;;;;10438037;28;20036;-54
2023/03/29 10:04:41;;;;;;;2.60;1.52;;;;;;;;;;10436385;28;20029;-54
2023/03/29 10:09:44;;;;;;;2.88;1.67;;;;;;;;;;10452367;28;20377;-52
2023/03/29 10:14:48;;;;;;;4.07;1.70;;;;;;;;;;10436196;28;20384;-56
2023/03/29 10:19:55;;;;;;;3.15;1.50;;;;;;;;;;10452684;28;20087;-53
2023/03/29 10:24:56;;;;;;;2.85;1.85;;;;;;;;;;10458149;28;20534;-53
2023/03/29 10:29:59;;;;;;;5.72;1.85;;;;;;;;;;10444972;28;20068;-53
2023/03/29 10:35:13;;;;;;;2.65;1.90;;;;;;;;;;10415927;28;20079;-55
2023/03/29 10:40:45;;;;;;;2.67;1.60;;;;;;;;;;10417020;28;20477;-54
2023/03/29 10:45:50;;;;;;;3.30;1.70;;;;;;;;;;10428498;28;20436;-55
2023/03/29 10:50:52;;;;;;;3.45;2.20;;;;;;;;;;10414658;28;20092;-60
2023/03/29 10:56:17;;;;;;;2.28;1.70;;;;;;;;;;10414414;28;20032;-54
2023/03/29 11:01:33;;;;;;;2.78;1.50;;;;;;;;;;10426233;28;20061;-54
2023/03/29 11:07:16;;;;;;;2.08;1.77;;;;;;;;;;10409063;28;20468;-69
2023/03/29 11:12:54;;;;;;;3.67;1.90;;;;;;;;;;10427623;28;20043;-66
2023/03/29 11:18:21;;;;;;;6.20;1.80;;;;;;;;;;10413654;28;20269;-56
2023/03/29 11:23:29;;;;;;;2.35;1.77;;;;;;;;;;10420908;28;20115;-53
2023/03/29 11:28:40;;;;;;;3.72;1.90;;;;;;;;;;10417934;28;20029;-66
2023/03/29 11:34:34;;;;;;;2.10;1.85;;;;;;;;;;10426793;28;20505;-54
2023/03/29 11:39:46;;;;;;;2.22;1.40;;;;;;;;;;10357996;28;20116;-61
2023/03/29 11:44:51;;;;;;;3.22;1.88;;;;;;;;;;10360174;28;20524;-61
2023/03/29 11:50:02;;;;;;;3.15;1.65;;;;;;;;;;10343846;28;20045;-55
2023/03/29 11:55:22;;;;;;;1.65;1.52;;;;;;;;;;10359545;28;20069;-54
2023/03/29 12:00:33;;;;;;;3.15;1.58;;;;;;;;;;10358303;28;20674;-56
2023/03/29 12:06:05;;;;;;;4.00;1.63;;;;;;;;;;10343881;28;20026;-52
2023/03/29 12:11:17;;;;;;;3.13;1.52;;;;;;;;;;10439121;28;20036;-53
2023/03/29 12:16:31;;;;;;;2.65;1.67;;;;;;;;;;10430227;28;20043;-54
2023/03/29 12:21:35;;;;;;;5.82;1.73;;;;;;;;;;10444330;28;20526;-51
2023/03/29 12:26:51;;;;;;;3.83;1.40;;;;;;;;;;10447970;28;20024;-56
2023/03/29 12:32:25;;;;;;;3.80;1.65;;;;;;;;;;10445282;28;20028;-54
2023/03/29 12:37:52;;;;;;;2.40;1.67;;;;;;;;;;10384433;28;20041;-59
2023/03/29 12:43:01;;;;;;;3.65;1.80;;;;;;;;;;10428151;28;20036;-53
2023/03/29 12:48:02;;;;;;;5.57;1.83;;;;;;;;;;10429966;28;20037;-55
2023/03/29 12:53:17;;;;;;;4.25;2.05;;;;;;;;;;10429378;28;20045;-62
2023/03/29 12:58:39;;;;;;;3.75;1.60;;;;;;;;;;10447411;28;20060;-66
2023/03/29 13:04:00;;;;;;;2.35;1.70;;;;;;;;;;10446945;28;20138;-56
2023/03/29 13:09:35;;;;;;;2.38;1.73;;;;;;;;;;10443763;28;20373;-56
2023/03/29 13:14:45;;;;;;;7.65;1.80;;;;;;;;;;10444282;28;20389;-62
2023/03/29 13:20:11;;;;;;;2.40;1.80;;;;;;;;;;10434060;28;20069;-55
2023/03/29 13:25:42;;;;;;;6.00;1.80;;;;;;;;;;10425446;28;20028;-56
2023/03/29 13:31:04;;;;;;;2.83;1.80;;;;;;;;;;10438821;28;20488;-57
2023/03/29 13:37:00;;;;;;;4.13;1.80;;;;;;;;;;10449426;28;20033;-57
2023/03/29 13:42:40;;;;;;;5.28;1.70;;;;;;;;;;10450646;28;20036;-57
2023/03/29 13:47:45;;;;;;;2.22;1.67;;;;;;;;;;10416677;28;20052;-56
2023/03/29 13:53:21;;;;;;;4.65;1.88;;;;;;;;;;10451631;28;20182;-70
2023/03/29 13:58:45;;;;;;;9.23;2.00;;;;;;;;;;10437307;28;20056;-50
2023/03/29 14:03:50;;;;;;;3.72;1.98;;;;;;;;;;10435852;28;20035;-54
2023/03/29 14:08:52;;;;;;;4.40;1.77;;;;;;;;;;10453544;28;20477;-57
2023/03/29 14:13:56;;;;;;;2.35;1.70;;;;;;;;;;10435142;28;20025;-53
2023/03/29 14:19:12;;;;;;;2.50;1.67;;;;;;;;;;10452294;28;20033;-53
2023/03/29 14:24:46;;;;;;;3.10;1.88;;;;;;;;;;10438369;28;20056;-59
2023/03/29 14:29:52;;;;;;;2.78;2.13;;;;;;;;;;10445005;28;20480;-55
2023/03/29 14:34:52;;;;;;;2.45;1.90;;;;;;;;;;10452974;28;20020;-57
2023/03/29 14:39:55;;;;;;;1.98;1.65;;;;;;;;;;10453283;28;20028;-54
2023/03/29 14:45:02;;;;;;;2.47;1.83;;;;;;;;;;10445341;28;20028;-53
2023/03/29 14:50:04;;;;;;;3.13;1.90;;;;;;;;;;10437942;28;20035;-53
2023/03/29 14:55:08;;;;;;;2.85;1.80;;;;;;;;;;10403632;23;20053;-58
2023/03/29 15:00:38;;;;;;;2.58;1.80;;;;;;;;;;10408592;28;20084;-59
2023/03/29 15:05:42;;;;;;;7.00;1.92;;;;;;;;;;10349620;28;20026;-58
2023/03/29 15:10:43;;;;;;;4.13;1.55;;;;;;;;;;10362988;28;20022;-58
2023/03/29 15:15:44;;;;;;;3.08;1.92;;;;;;;;;;10363008;28;20022;-58
2023/03/29 15:20:45;;;;;;;4.20;2.10;;;;;;;;;;10362777;28;20026;-58
2023/03/29 15:25:58;;;;;;;2.67;2.00;;;;;;;;;;10368188;28;20033;-58
2023/03/29 15:31:10;;;;;;;2.65;1.80;;;;;;;;;;10343277;28;20050;-58
2023/03/29 15:36:13;;;;;;;7.30;1.92;;;;;;;;;;10342607;28;20064;-58
2023/03/29 15:41:14;;;;;;;3.08;1.80;;;;;;;;;;10329675;28;20065;-58
2023/03/29 15:46:15;;;;;;;2.05;1.40;;;;;;;;;;10342961;28;20057;-58
2023/03/29 15:51:16;;;;;;;1.92;1.70;;;;;;;;;;10342729;28;20037;-58
2023/03/29 15:56:19;;;;;;;4.60;1.95;;;;;;;;;;10331106;28;20030;-58
2023/03/29 16:01:33;;;;;;;2.03;1.55;;;;;;;;;;10341172;28;20038;-58
2023/03/29 16:06:34;;;;;;;4.60;2.00;;;;;;;;;;10337553;28;20138;-59
2023/03/29 16:11:35;;;;;;;6.30;1.70;;;;;;;;;;10353892;28;20606;-59
2023/03/29 16:16:36;;;;;;;3.97;1.83;;;;;;;;;;10354434;28;20157;-58
2023/03/29 16:21:36;;;;;;;3.17;1.95;;;;;;;;;;10354214;28;20038;-58
2023/03/29 16:26:38;;;;;;;3.53;2.05;;;;;;;;;;10345991;28;20031;-58
2023/03/29 16:31:38;;;;;;;3.83;2.03;;;;;;;;;;10329139;28;20510;-58
2023/03/29 16:36:39;;;;;;;2.72;1.60;;;;;;;;;;10341633;28;20030;-58
2023/03/29 16:41:41;;;;;;;2.72;1.70;;;;;;;;;;10334781;28;20029;-59
2023/03/29 16:46:42;;;;;;;3.58;2.00;;;;;;;;;;10365023;28;20478;-58
2023/03/29 16:51:45;;;;;;;5.35;1.75;;;;;;;;;;10365330;28;20058;-58
2023/03/29 16:56:46;;;;;;;6.20;1.83;;;;;;;;;;10365462;28;20022;-58
2023/03/29 17:01:47;;;;;;;3.50;2.15;;;;;;;;;;10362978;28;20030;-58
2023/03/29 17:06:47;;;;;;;3.17;1.80;;;;;;;;;;10365989;28;20021;-58
2023/03/29 17:11:48;;;;;;;2.97;2.00;;;;;;;;;;10369986;28;20076;-58
2023/03/29 17:16:48;;;;;;;3.05;1.95;;;;;;;;;;10372741;28;20420;-58
2023/03/29 17:21:49;;;;;;;2.97;2.05;;;;;;;;;;10373241;28;20060;-58
2023/03/29 17:26:50;;;;;;;2.28;1.60;;;;;;;;;;10350747;28;20042;-58
2023/03/29 17:31:51;;;;;;;4.45;2.08;;;;;;;;;;10345330;28;20022;-58
2023/03/29 17:36:52;;;;;;;5.75;1.77;;;;;;;;;;10348923;28;20122;-58
2023/03/29 17:41:53;;;;;;;2.90;1.70;;;;;;;;;;10354651;28;20089;-58
2023/03/29 17:46:53;;;;;;;15.65;2.15;;;;;;;;;;10349651;28;20273;-59
2023/03/29 17:51:54;;;;;;;10.02;1.80;;;;;;;;;;10369746;28;20092;-59
2023/03/29 17:56:54;;;;;;;3.67;2.00;;;;;;;;;;10377113;28;20021;-59
2023/03/29 18:01:56;;;;;;;5.05;2.13;;;;;;;;;;10369239;28;20091;-59
2023/03/29 18:06:56;;;;;;;10.65;2.33;;;;;;;;;;10360053;28;20018;-58
2023/03/29 18:11:57;;;;;;;7.60;2.10;;;;;;;;;;10364683;28;20041;-59
2023/03/29 18:16:58;;;;;;;12.27;2.47;;;;;;;;;;10362389;28;20018;-59
2023/03/29 18:21:59;;;;;;;4.85;2.60;;;;;;;;;;10369592;28;20484;-59
2023/03/29 18:27:00;;;;;;;8.68;2.50;;;;;;;;;;10369584;28;20504;-59
2023/03/29 18:32:01;;;;;;;6.05;2.60;;;;;;;;;;10356192;28;20045;-59
2023/03/29 18:37:02;;;;;;;4.30;2.22;;;;;;;;;;10332475;28;20081;-59
2023/03/29 18:42:03;;;;;;;5.35;2.53;;;;;;;;;;10345130;28;20060;-59
2023/03/29 18:47:04;;;;;;;12.00;2.08;;;;;;;;;;10348591;28;20061;-59
2023/03/29 18:52:04;;;;;;;6.30;2.45;;;;;;;;;;10347475;28;20050;-59
2023/03/29 18:57:05;;;;;;;8.70;2.60;;;;;;;;;;10359829;28;20506;-53
2023/03/29 19:02:05;;;;;;;6.65;2.40;;;;;;;;;;10367105;28;20017;-56
2023/03/29 19:07:07;;;;;;;9.25;2.22;;;;;;;;;;10357107;28;20038;-57
2023/03/29 19:12:08;;;;;;;17.50;3.15;;;;;;;;;;10366271;28;20034;-57
2023/03/29 19:17:08;;;;;;;7.88;2.53;;;;;;;;;;10361179;28;20114;-59
2023/03/29 19:22:09;;;;;;;12.15;3.20;;;;;;;;;;10364259;28;20045;-59
2023/03/29 19:27:10;;;;;;;6.32;3.00;;;;;;;;;;10364598;28;20139;-59
2023/03/29 19:32:11;;;;;;;11.48;3.22;;;;;;;;;;10372731;28;20026;-60
2023/03/29 19:37:12;;;;;;;8.73;2.97;;;;;;;;;;10366038;28;20382;-59
2023/03/29 19:42:12;;;;;;;33.88;4.10;;;;;;;;;;10339302;28;20030;-60
2023/03/29 19:47:13;;;;;;;22.77;3.90;;;;;;;;;;10349427;28;20047;-60
2023/03/29 19:52:13;;;;;;;11.75;3.03;;;;;;;;;;10335329;28;20047;-59
2023/03/29 19:57:15;;;;;;;13.18;3.60;;;;;;;;;;10349885;28;20155;-60
2023/03/29 20:02:15;;;;;;;15.95;2.60;;;;;;;;;;10348334;28;20046;-61
2023/03/29 20:07:16;;;;;;;10.13;3.00;;;;;;;;;;10335910;28;20105;-60
2023/03/29 20:12:16;;;;;;;10.43;3.03;;;;;;;;;;10366415;28;20088;-60
2023/03/29 20:17:17;;;;;;;9.65;3.13;;;;;;;;;;10363752;28;20025;-61
2023/03/29 20:22:18;;;;;;;7.93;2.80;;;;;;;;;;10366605;28;20237;-60
2023/03/29 20:27:20;;;;;;;7.38;3.03;;;;;;;;;;10341450;28;20076;-60
2023/03/29 20:32:20;;;;;;;7.38;3.05;;;;;;;;;;10335696;28;20105;-60
2023/03/29 20:37:21;;;;;;;7.13;2.50;;;;;;;;;;10344652;28;20033;-60
2023/03/29 20:42:27;;;;;;;11.00;2.97;;;;;;;;;;10338872;28;20030;-60
2023/03/29 20:47:28;;;;;;;9.50;2.88;;;;;;;;;;10351553;28;20434;-59
2023/03/29 20:52:29;;;;;;;6.82;2.92;;;;;;;;;;10343969;28;20053;-60
2023/03/29 20:57:30;;;;;;;6.18;2.70;;;;;;;;;;10372155;28;20030;-60
2023/03/29 21:02:30;;;;;;;7.20;2.97;;;;;;;;;;10346937;28;20022;-60
2023/03/29 21:07:31;;;;;;;6.05;2.60;;;;;;;;;;10348401;28;20026;-60
2023/03/29 21:12:31;;;;;;;6.40;2.83;;;;;;;;;;10343173;28;20413;-60
2023/03/29 21:17:33;;;;;;;6.07;2.70;;;;;;;;;;10341943;28;20110;-60
2023/03/29 21:22:33;;;;;;;5.22;2.63;;;;;;;;;;10343551;28;20037;-60
2023/03/29 21:27:34;;;;;;;6.65;2.70;;;;;;;;;;10345577;28;20037;-61
2023/03/29 21:32:35;;;;;;;7.63;2.95;;;;;;;;;;10355941;28;20030;-60
2023/03/29 21:37:36;;;;;;;6.75;2.70;;;;;;;;;;10375251;28;20034;-60
2023/03/29 21:42:37;;;;;;;7.40;2.90;;;;;;;;;;10367947;28;20030;-60
2023/03/29 21:47:37;;;;;;;5.53;2.67;;;;;;;;;;10357698;28;20084;-60
2023/03/29 21:52:38;;;;;;;7.65;3.00;;;;;;;;;;10353745;28;20049;-60
2023/03/29 21:57:38;;;;;;;8.27;2.72;;;;;;;;;;10343290;28;20034;-60
2023/03/29 22:02:40;;;;;;;6.22;2.60;;;;;;;;;;10354232;28;20353;-60
2023/03/29 22:07:40;;;;;;;7.53;2.58;;;;;;;;;;10362995;28;20157;-60
2023/03/29 22:12:42;;;;;;;14.90;3.40;;;;;;;;;;10370077;28;20154;-59
2023/03/29 22:17:42;;;;;;;11.13;3.13;;;;;;;;;;10370727;28;20029;-59
2023/03/29 22:22:48;;;;;;;17.13;3.13;;;;;;;;;;10364630;28;20026;-60
2023/03/29 22:27:49;;;;;;;9.48;3.05;;;;;;;;;;10349309;28;20397;-60
2023/03/29 22:32:49;;;;;;;7.85;3.10;;;;;;;;;;10342383;28;20037;-59
2023/03/29 22:37:50;;;;;;;8.82;2.90;;;;;;;;;;10339053;28;20029;-60
2023/03/29 22:42:51;;;;;;;11.25;2.72;;;;;;;;;;10337168;28;20037;-60
2023/03/29 22:47:51;;;;;;;8.02;3.20;;;;;;;;;;10357902;28;20227;-59
2023/03/29 22:52:52;;;;;;;5.63;2.95;;;;;;;;;;10369356;28;20049;-59
2023/03/29 22:57:52;;;;;;;5.07;2.40;;;;;;;;;;10367926;28;20026;-59
2023/03/29 23:02:53;;;;;;;5.38;2.67;;;;;;;;;;10368004;28;20049;-58
2023/03/29 23:07:54;;;;;;;7.60;3.35;;;;;;;;;;10364578;28;20492;-59
2023/03/29 23:13:09;;;;;;;5.78;3.38;;;;;;;;;;10367680;28;20065;-60
2023/03/29 23:18:14;;;;;;;7.03;2.88;;;;;;;;;;10368088;28;20141;-59
2023/03/29 23:23:16;;;;;;;5.57;2.70;;;;;;;;;;10368348;28;20551;-60
2023/03/29 23:28:22;;;;;;;13.02;2.75;;;;;;;;;;10342969;28;20108;-59
2023/03/29 23:33:24;;;;;;;6.43;2.72;;;;;;;;;;10391328;28;20079;-59
2023/03/29 23:38:25;;;;;;;5.28;2.42;;;;;;;;;;10393446;28;20128;-58
2023/03/29 23:43:31;;;;;;;3.30;1.95;;;;;;;;;;10383943;28;20026;-59
2023/03/29 23:48:33;;;;;;;3.83;2.40;;;;;;;;;;10379541;28;20389;-59
2023/03/29 23:53:33;;;;;;;3.97;2.35;;;;;;;;;;10380084;28;20046;-59
2023/03/29 23:58:36;;;;;;;10.02;2.33;;;;;;;;;;10366800;28;20038;-59
